createdAt,value
2023-02-18T00:00:22.335Z,99.99
2023-02-18T00:01:22.360Z,99.99
2023-02-18T00:02:22.347Z,99.99
2023-02-18T00:03:22.353Z,99.99
2023-02-18T00:04:22.283Z,99.99
2023-02-18T00:05:22.267Z,99.99
2023-02-18T00:06:22.277Z,99.99
2023-02-18T00:07:22.242Z,99.99
2023-02-18T00:08:22.234Z,99.99
2023-02-18T00:09:22.221Z,99.99
2023-02-18T00:10:22.206Z,99.99
2023-02-18T00:11:22.203Z,99.99
2023-02-18T00:12:22.180Z,99.99
2023-02-18T00:13:22.162Z,99.99
2023-02-18T00:14:22.148Z,99.99
2023-02-18T00:15:22.144Z,99.99
2023-02-18T00:16:22.143Z,99.99
2023-02-18T00:17:22.135Z,99.99
2023-02-18T00:18:22.099Z,99.99
2023-02-18T00:19:22.091Z,99.99
2023-02-18T00:20:22.077Z,99.99
2023-02-18T00:21:22.076Z,99.99
2023-02-18T00:22:22.046Z,99.99
2023-02-18T00:23:22.035Z,99.99
2023-02-18T00:24:22.021Z,99.99
2023-02-18T00:25:22.013Z,99.99
2023-02-18T00:26:22.013Z,99.99
2023-02-18T00:27:21.981Z,99.99
2023-02-18T00:28:21.969Z,99.99
2023-02-18T00:29:21.957Z,99.99
2023-02-18T00:30:21.997Z,99.99
2023-02-18T00:31:22.099Z,99.99
2023-02-18T00:32:21.948Z,99.99
2023-02-18T00:33:21.928Z,99.99
2023-02-18T00:34:21.894Z,99.99
2023-02-18T00:35:21.882Z,99.99
2023-02-18T00:36:21.868Z,99.99
2023-02-18T00:37:21.867Z,99.99
2023-02-18T00:38:21.838Z,99.99
2023-02-18T00:39:21.829Z,99.99
2023-02-18T00:40:21.814Z,99.99
2023-02-18T00:41:21.796Z,99.99
2023-02-18T00:42:21.808Z,99.99
2023-02-18T00:43:21.771Z,99.99
2023-02-18T00:44:21.760Z,99.99
2023-02-18T00:45:21.774Z,99.99
2023-02-18T00:46:22.507Z,99.99
2023-02-18T00:47:21.738Z,99.99
2023-02-18T00:48:21.708Z,99.99
2023-02-18T00:49:21.720Z,99.99
2023-02-18T00:50:21.690Z,99.99
2023-02-18T00:51:21.675Z,99.99
2023-02-18T00:52:21.677Z,99.99
2023-02-18T00:53:21.647Z,99.99
2023-02-18T00:54:21.636Z,99.99
2023-02-18T00:55:21.626Z,99.99
2023-02-18T00:56:21.616Z,99.99
2023-02-18T00:57:21.623Z,99.99
2023-02-18T00:58:21.580Z,99.99
2023-02-18T00:59:21.566Z,99.99
2023-02-18T01:00:21.555Z,99.99
2023-02-18T01:01:21.579Z,99.99
2023-02-18T01:02:21.567Z,99.99
2023-02-18T01:03:21.517Z,99.99
2023-02-18T01:04:21.519Z,99.99
2023-02-18T01:05:21.519Z,99.99
2023-02-18T01:06:21.479Z,99.99
2023-02-18T01:07:21.479Z,99.99
2023-02-18T01:08:21.450Z,99.99
2023-02-18T01:09:21.448Z,99.99
2023-02-18T01:10:21.427Z,99.99
2023-02-18T01:11:21.430Z,99.99
2023-02-18T01:12:21.413Z,99.99
2023-02-18T01:13:21.386Z,99.99
2023-02-18T01:14:21.375Z,99.99
2023-02-18T01:15:21.366Z,99.99
2023-02-18T01:16:21.391Z,99.99
2023-02-18T01:17:21.358Z,99.99
2023-02-18T01:18:21.320Z,99.99
2023-02-18T01:19:21.310Z,99.99
2023-02-18T01:20:21.302Z,99.99
2023-02-18T01:21:21.308Z,99.99
2023-02-18T01:22:21.299Z,99.99
2023-02-18T01:23:21.260Z,99.99
2023-02-18T01:24:21.247Z,99.99
2023-02-18T01:25:21.230Z,99.99
2023-02-18T01:26:21.224Z,99.99
2023-02-18T01:27:21.228Z,99.99
2023-02-18T01:28:21.201Z,99.99
2023-02-18T01:29:21.182Z,99.99
2023-02-18T01:30:21.287Z,99.99
2023-02-18T01:31:21.276Z,99.99
2023-02-18T01:32:21.174Z,99.99
2023-02-18T01:33:21.125Z,99.99
2023-02-18T01:34:21.114Z,99.99
2023-02-18T01:35:21.106Z,99.99
2023-02-18T01:36:21.088Z,99.99
2023-02-18T01:37:21.098Z,99.99
2023-02-18T01:38:21.079Z,99.99
2023-02-18T01:39:21.043Z,99.99
2023-02-18T01:40:21.034Z,99.99
2023-02-18T01:41:21.023Z,99.99
2023-02-18T01:42:21.003Z,99.99
2023-02-18T01:43:21.002Z,99.99
2023-02-18T01:44:20.997Z,99.99
2023-02-18T01:45:20.966Z,99.99
2023-02-18T01:46:21.001Z,99.99
2023-02-18T01:47:20.944Z,99.99
2023-02-18T01:48:20.939Z,99.99
2023-02-18T01:49:20.914Z,99.99
2023-02-18T01:50:20.896Z,99.99
2023-02-18T01:51:20.884Z,99.99
2023-02-18T01:52:20.870Z,99.99
2023-02-18T01:53:20.895Z,99.99
2023-02-18T01:54:20.846Z,99.99
2023-02-18T01:55:20.841Z,99.99
2023-02-18T01:56:20.819Z,99.99
2023-02-18T01:57:20.811Z,99.99
2023-02-18T01:58:20.802Z,99.99
2023-02-18T01:59:20.780Z,99.99
2023-02-18T02:00:20.768Z,99.99
2023-02-18T02:01:20.754Z,99.99
2023-02-18T02:02:20.761Z,99.99
2023-02-18T02:03:20.741Z,99.99
2023-02-18T02:04:20.708Z,99.99
2023-02-18T02:05:20.707Z,99.99
2023-02-18T02:06:20.681Z,99.99
2023-02-18T02:07:20.672Z,99.99
2023-02-18T02:08:20.669Z,99.99
2023-02-18T02:09:20.661Z,99.99
2023-02-18T02:10:20.631Z,99.99
2023-02-18T02:11:20.620Z,99.99
2023-02-18T02:12:20.614Z,99.99
2023-02-18T02:13:20.609Z,99.99
2023-02-18T02:14:20.579Z,99.99
2023-02-18T02:15:20.586Z,99.99
2023-02-18T02:16:20.633Z,99.99
2023-02-18T02:17:20.568Z,99.99
2023-02-18T02:18:20.569Z,99.99
2023-02-18T02:19:20.517Z,99.99
2023-02-18T02:20:20.500Z,99.99
2023-02-18T02:21:20.499Z,99.99
2023-02-18T02:22:20.478Z,99.99
2023-02-18T02:23:20.478Z,99.99
2023-02-18T02:24:20.451Z,99.99
2023-02-18T02:25:20.458Z,99.99
2023-02-18T02:26:20.426Z,99.99
2023-02-18T02:27:20.411Z,99.99
2023-02-18T02:28:20.423Z,99.99
2023-02-18T02:29:20.386Z,99.99
2023-02-18T02:30:20.432Z,99.99
2023-02-18T02:31:20.448Z,99.99
2023-02-18T02:32:20.340Z,99.99
2023-02-18T02:33:20.371Z,99.99
2023-02-18T02:34:20.313Z,99.99
2023-02-18T02:35:20.314Z,99.99
2023-02-18T02:36:20.290Z,99.99
2023-02-18T02:37:20.281Z,99.99
2023-02-18T02:38:20.298Z,99.99
2023-02-18T02:39:20.249Z,99.99
2023-02-18T02:40:20.272Z,99.99
2023-02-18T02:41:20.245Z,99.99
2023-02-18T02:42:20.211Z,99.99
2023-02-18T02:43:20.234Z,99.99
2023-02-18T02:44:20.193Z,99.99
2023-02-18T02:45:20.173Z,99.99
2023-02-18T02:46:20.168Z,99.99
2023-02-18T02:47:20.153Z,99.99
2023-02-18T02:48:20.138Z,99.74
2023-02-18T02:49:20.144Z,99.23
2023-02-18T02:50:20.118Z,99.02
2023-02-18T02:51:20.103Z,99.02
2023-02-18T02:52:20.088Z,99.02
2023-02-18T02:53:20.073Z,99.02
2023-02-18T02:54:20.188Z,99.02
2023-02-18T02:55:20.072Z,98.61
2023-02-18T02:56:20.039Z,98.41
2023-02-18T02:57:20.063Z,98.41
2023-02-18T02:58:20.009Z,98.41
2023-02-18T02:59:20.014Z,98.31
2023-02-18T03:00:19.981Z,98.00
2023-02-18T03:01:20.039Z,97.80
2023-02-18T03:02:19.956Z,97.80
2023-02-18T03:03:20.103Z,97.60
2023-02-18T03:04:19.972Z,97.55
2023-02-18T03:05:19.919Z,97.24
2023-02-18T03:06:19.902Z,97.24
2023-02-18T03:07:19.896Z,96.53
2023-02-18T03:08:19.880Z,96.43
2023-02-18T03:09:19.889Z,96.33
2023-02-18T03:10:19.859Z,96.37
2023-02-18T03:11:19.836Z,96.17
2023-02-18T03:12:19.835Z,96.12
2023-02-18T03:13:19.846Z,96.22
2023-02-18T03:14:19.815Z,96.47
2023-02-18T03:15:19.787Z,96.47
2023-02-18T03:16:19.802Z,96.68
2023-02-18T03:17:19.757Z,96.78
2023-02-18T03:18:19.747Z,96.98
2023-02-18T03:19:19.752Z,96.78
2023-02-18T03:20:19.727Z,96.98
2023-02-18T03:21:19.704Z,96.98
2023-02-18T03:22:19.688Z,96.98
2023-02-18T03:23:19.676Z,97.08
2023-02-18T03:24:19.698Z,97.19
2023-02-18T03:25:19.668Z,97.19
2023-02-18T03:26:19.642Z,97.29
2023-02-18T03:27:19.635Z,97.39
2023-02-18T03:28:19.612Z,97.29
2023-02-18T03:29:19.642Z,97.08
2023-02-18T03:30:19.629Z,96.98
2023-02-18T03:31:19.670Z,96.98
2023-02-18T03:32:19.638Z,96.88
2023-02-18T03:33:19.549Z,96.88
2023-02-18T03:34:19.546Z,96.98
2023-02-18T03:35:19.528Z,96.98
2023-02-18T03:36:19.510Z,96.78
2023-02-18T03:37:19.497Z,96.88
2023-02-18T03:38:19.490Z,96.88
2023-02-18T03:39:19.492Z,96.88
2023-02-18T03:40:19.458Z,96.88
2023-02-18T03:41:19.460Z,96.98
2023-02-18T03:42:19.459Z,97.08
2023-02-18T03:43:19.425Z,97.08
2023-02-18T03:44:19.431Z,97.19
2023-02-18T03:45:19.414Z,97.08
2023-02-18T03:46:19.431Z,97.08
2023-02-18T03:47:19.366Z,96.98
2023-02-18T03:48:19.355Z,96.98
2023-02-18T03:49:19.346Z,96.88
2023-02-18T03:50:19.353Z,96.88
2023-02-18T03:51:19.327Z,96.68
2023-02-18T03:52:19.303Z,96.37
2023-02-18T03:53:19.297Z,96.47
2023-02-18T03:54:19.274Z,96.47
2023-02-18T03:55:19.280Z,96.37
2023-02-18T03:56:19.248Z,96.37
2023-02-18T03:57:19.232Z,96.22
2023-02-18T03:58:19.233Z,96.33
2023-02-18T03:59:19.204Z,96.33
2023-02-18T04:00:19.219Z,96.47
2023-02-18T04:01:19.244Z,96.47
2023-02-18T04:02:19.171Z,96.58
2023-02-18T04:03:19.152Z,96.58
2023-02-18T04:04:19.221Z,96.58
2023-02-18T04:05:19.143Z,96.47
2023-02-18T04:06:19.120Z,96.58
2023-02-18T04:07:19.115Z,96.68
2023-02-18T04:08:19.091Z,96.78
2023-02-18T04:09:19.078Z,96.78
2023-02-18T04:10:19.088Z,96.78
2023-02-18T04:11:19.046Z,96.68
2023-02-18T04:12:19.039Z,96.68
2023-02-18T04:13:19.026Z,96.88
2023-02-18T04:14:19.016Z,96.98
2023-02-18T04:15:19.020Z,97.08
2023-02-18T04:16:19.048Z,96.98
2023-02-18T04:17:18.992Z,97.08
2023-02-18T04:18:18.958Z,97.19
2023-02-18T04:19:18.947Z,97.29
2023-02-18T04:20:18.948Z,97.39
2023-02-18T04:21:18.926Z,97.70
2023-02-18T04:22:18.908Z,98.05
2023-02-18T04:23:18.895Z,98.25
2023-02-18T04:24:18.887Z,98.46
2023-02-18T04:25:18.879Z,98.66
2023-02-18T04:26:18.856Z,98.66
2023-02-18T04:27:18.844Z,98.66
2023-02-18T04:28:18.836Z,98.66
2023-02-18T04:29:18.844Z,98.77
2023-02-18T04:30:19.156Z,98.66
2023-02-18T04:31:18.841Z,98.77
2023-02-18T04:32:18.783Z,98.77
2023-02-18T04:33:18.784Z,98.77
2023-02-18T04:34:18.758Z,98.97
2023-02-18T04:35:18.748Z,99.07
2023-02-18T04:36:18.728Z,99.07
2023-02-18T04:37:18.717Z,99.07
2023-02-18T04:38:18.701Z,99.07
2023-02-18T04:39:18.685Z,98.97
2023-02-18T04:40:18.688Z,98.97
2023-02-18T04:41:18.663Z,98.93
2023-02-18T04:42:18.661Z,98.97
2023-02-18T04:43:18.635Z,98.93
2023-02-18T04:44:18.631Z,98.93
2023-02-18T04:45:18.621Z,98.93
2023-02-18T04:46:18.669Z,98.93
2023-02-18T04:47:18.587Z,98.72
2023-02-18T04:48:18.571Z,98.72
2023-02-18T04:49:18.588Z,98.72
2023-02-18T04:50:18.562Z,98.72
2023-02-18T04:51:18.546Z,98.72
2023-02-18T04:52:18.530Z,98.72
2023-02-18T04:53:18.515Z,98.72
2023-02-18T04:54:18.487Z,98.72
2023-02-18T04:55:18.496Z,98.61
2023-02-18T04:56:18.468Z,98.61
2023-02-18T04:57:18.467Z,98.72
2023-02-18T04:58:18.445Z,98.72
2023-02-18T04:59:18.426Z,98.72
2023-02-18T05:00:18.446Z,98.93
2023-02-18T05:01:18.501Z,98.93
2023-02-18T05:02:18.474Z,99.02
2023-02-18T05:03:18.385Z,99.13
2023-02-18T05:04:18.408Z,99.33
2023-02-18T05:05:18.401Z,99.64
2023-02-18T05:06:18.340Z,99.99
2023-02-18T05:07:18.383Z,99.99
2023-02-18T05:08:18.312Z,99.99
2023-02-18T05:09:18.311Z,99.99
2023-02-18T05:10:18.311Z,99.99
2023-02-18T05:11:18.277Z,99.99
2023-02-18T05:12:18.268Z,99.99
2023-02-18T05:13:18.248Z,99.99
2023-02-18T05:14:18.242Z,99.99
2023-02-18T05:15:18.237Z,99.99
2023-02-18T05:16:18.208Z,99.99
2023-02-18T05:17:18.201Z,99.99
2023-02-18T05:18:18.194Z,99.99
2023-02-18T05:19:18.176Z,99.99
2023-02-18T05:20:18.174Z,99.99
2023-02-18T05:21:18.160Z,99.99
2023-02-18T05:22:18.135Z,99.99
2023-02-18T05:23:18.129Z,99.99
2023-02-18T05:24:18.115Z,99.99
2023-02-18T05:25:18.121Z,99.99
2023-02-18T05:26:18.077Z,99.99
2023-02-18T05:27:18.068Z,99.99
2023-02-18T05:28:18.059Z,99.99
2023-02-18T05:29:18.039Z,99.99
2023-02-18T05:30:18.076Z,99.99
2023-02-18T05:31:18.140Z,99.99
2023-02-18T05:32:18.001Z,99.99
2023-02-18T05:33:17.989Z,99.99
2023-02-18T05:34:17.974Z,99.99
2023-02-18T05:35:17.958Z,99.99
2023-02-18T05:36:17.960Z,99.99
2023-02-18T05:37:17.955Z,99.99
2023-02-18T05:38:17.944Z,99.99
2023-02-18T05:39:17.915Z,99.99
2023-02-18T05:40:17.896Z,99.99
2023-02-18T05:41:17.890Z,99.99
2023-02-18T05:42:17.876Z,99.99
2023-02-18T05:43:17.854Z,99.99
2023-02-18T05:44:17.840Z,99.99
2023-02-18T05:45:17.824Z,99.99
2023-02-18T05:46:17.852Z,99.99
2023-02-18T05:47:17.797Z,99.99
2023-02-18T05:48:17.783Z,99.99
2023-02-18T05:49:17.775Z,99.99
2023-02-18T05:50:17.773Z,99.99
2023-02-18T05:51:17.761Z,99.99
2023-02-18T05:52:17.737Z,99.99
2023-02-18T05:53:17.790Z,99.99
2023-02-18T05:54:17.710Z,99.99
2023-02-18T05:55:17.689Z,99.99
2023-02-18T05:56:17.690Z,99.99
2023-02-18T05:57:17.660Z,99.99
2023-02-18T05:58:17.656Z,99.99
2023-02-18T05:59:17.635Z,99.99
2023-02-18T06:00:17.627Z,99.99
2023-02-18T06:01:17.630Z,99.99
2023-02-18T06:02:17.719Z,99.99
2023-02-18T06:03:17.587Z,99.99
2023-02-18T06:04:17.578Z,99.99
2023-02-18T06:05:17.558Z,99.99
2023-02-18T06:06:17.608Z,99.99
2023-02-18T06:07:17.538Z,99.99
2023-02-18T06:08:17.533Z,99.99
2023-02-18T06:09:17.542Z,99.99
2023-02-18T06:10:17.501Z,99.99
2023-02-18T06:11:17.491Z,99.99
2023-02-18T06:12:17.463Z,99.99
2023-02-18T06:13:17.454Z,99.99
2023-02-18T06:14:17.439Z,99.99
2023-02-18T06:15:17.423Z,99.99
2023-02-18T06:16:17.453Z,99.99
2023-02-18T06:17:17.396Z,99.99
2023-02-18T06:18:17.392Z,99.99
2023-02-18T06:19:17.372Z,99.99
2023-02-18T06:20:17.366Z,99.99
2023-02-18T06:21:17.370Z,99.99
2023-02-18T06:22:17.339Z,99.99
2023-02-18T06:23:17.347Z,99.99
2023-02-18T06:24:17.310Z,99.99
2023-02-18T06:25:17.315Z,99.99
2023-02-18T06:26:17.319Z,99.99
2023-02-18T06:27:17.265Z,99.99
2023-02-18T06:28:17.261Z,99.99
2023-02-18T06:29:17.247Z,99.99
2023-02-18T06:30:17.258Z,99.99
2023-02-18T06:31:17.333Z,99.52
2023-02-18T06:32:17.296Z,99.11
2023-02-18T06:33:17.189Z,98.61
2023-02-18T06:34:17.172Z,98.91
2023-02-18T06:35:17.162Z,98.50
2023-02-18T06:36:17.162Z,97.95
2023-02-18T06:37:17.126Z,97.44
2023-02-18T06:38:17.119Z,97.58
2023-02-18T06:39:17.102Z,97.24
2023-02-18T06:40:17.087Z,96.87
2023-02-18T06:41:17.114Z,94.58
2023-02-18T06:42:17.069Z,92.49
2023-02-18T06:43:17.044Z,92.80
2023-02-18T06:44:17.047Z,92.69
2023-02-18T06:45:17.023Z,92.80
2023-02-18T06:46:17.048Z,92.39
2023-02-18T06:47:17.010Z,92.90
2023-02-18T06:48:17.045Z,92.02
2023-02-18T06:49:16.968Z,91.57
2023-02-18T06:50:16.953Z,90.86
2023-02-18T06:51:16.959Z,90.86
2023-02-18T06:52:16.927Z,90.04
2023-02-18T06:53:16.913Z,89.84
2023-02-18T06:54:16.899Z,89.94
2023-02-18T06:55:16.884Z,90.25
2023-02-18T06:56:16.893Z,89.63
2023-02-18T06:57:16.877Z,89.84
2023-02-18T06:58:16.847Z,89.02
2023-02-18T06:59:16.837Z,89.02
2023-02-18T07:00:16.825Z,88.71
2023-02-18T07:01:16.920Z,89.02
2023-02-18T07:02:16.802Z,88.51
2023-02-18T07:03:16.782Z,88.82
2023-02-18T07:04:16.773Z,88.71
2023-02-18T07:05:16.757Z,88.20
2023-02-18T07:06:16.770Z,87.70
2023-02-18T07:07:16.733Z,87.08
2023-02-18T07:08:16.806Z,86.67
2023-02-18T07:09:16.705Z,86.16
2023-02-18T07:10:16.717Z,86.36
2023-02-18T07:11:16.692Z,86.88
2023-02-18T07:12:16.664Z,86.06
2023-02-18T07:13:16.670Z,85.86
2023-02-18T07:14:16.652Z,86.26
2023-02-18T07:15:16.622Z,86.36
2023-02-18T07:16:16.669Z,85.14
2023-02-18T07:17:16.596Z,84.83
2023-02-18T07:18:16.625Z,84.94
2023-02-18T07:19:16.601Z,84.83
2023-02-18T07:20:16.563Z,84.94
2023-02-18T07:21:16.572Z,84.53
2023-02-18T07:22:16.575Z,85.04
2023-02-18T07:23:16.543Z,85.04
2023-02-18T07:24:16.550Z,85.04
2023-02-18T07:25:16.523Z,84.63
2023-02-18T07:26:16.494Z,84.53
2023-02-18T07:27:16.514Z,84.12
2023-02-18T07:28:16.495Z,84.22
2023-02-18T07:29:16.456Z,84.33
2023-02-18T07:30:16.450Z,84.53
2023-02-18T07:31:16.536Z,84.12
2023-02-18T07:32:16.823Z,84.12
2023-02-18T07:33:16.391Z,83.81
2023-02-18T07:34:16.380Z,83.20
2023-02-18T07:35:16.357Z,83.40
2023-02-18T07:36:16.354Z,83.57
2023-02-18T07:37:16.371Z,83.16
2023-02-18T07:38:16.332Z,83.37
2023-02-18T07:39:16.317Z,82.75
2023-02-18T07:40:16.297Z,82.65
2023-02-18T07:41:16.302Z,82.55
2023-02-18T07:42:16.284Z,82.86
2023-02-18T07:43:16.252Z,82.96
2023-02-18T07:44:16.246Z,82.55
2023-02-18T07:45:16.259Z,82.35
2023-02-18T07:46:16.268Z,82.55
2023-02-18T07:47:16.220Z,82.41
2023-02-18T07:48:16.188Z,82.04
2023-02-18T07:49:16.180Z,82.41
2023-02-18T07:50:16.176Z,82.96
2023-02-18T07:51:16.158Z,82.82
2023-02-18T07:52:16.161Z,82.10
2023-02-18T07:53:16.133Z,82.51
2023-02-18T07:54:16.114Z,82.31
2023-02-18T07:55:16.118Z,82.31
2023-02-18T07:56:16.090Z,82.41
2023-02-18T07:57:16.086Z,82.61
2023-02-18T07:58:16.059Z,82.31
2023-02-18T07:59:16.046Z,82.00
2023-02-18T08:00:16.032Z,82.31
2023-02-18T08:01:16.041Z,81.90
2023-02-18T08:02:16.119Z,82.00
2023-02-18T08:03:16.002Z,81.39
2023-02-18T08:04:16.042Z,81.70
2023-02-18T08:05:15.970Z,81.15
2023-02-18T08:06:15.956Z,81.04
2023-02-18T08:07:15.954Z,80.02
2023-02-18T08:08:15.939Z,79.62
2023-02-18T08:09:15.917Z,79.52
2023-02-18T08:10:15.906Z,78.80
2023-02-18T08:11:19.392Z,79.41
2023-02-18T08:12:15.890Z,78.80
2023-02-18T08:13:15.869Z,78.91
2023-02-18T08:14:15.861Z,79.00
2023-02-18T08:15:15.838Z,79.11
2023-02-18T08:16:15.885Z,78.50
2023-02-18T08:17:15.842Z,77.89
2023-02-18T08:18:15.801Z,77.68
2023-02-18T08:19:15.784Z,77.78
2023-02-18T08:20:15.769Z,78.39
2023-02-18T08:21:15.762Z,78.43
2023-02-18T08:22:15.759Z,79.00
2023-02-18T08:23:15.743Z,78.94
2023-02-18T08:24:15.719Z,79.04
2023-02-18T08:25:28.756Z,78.84
2023-02-18T08:26:15.696Z,78.84
2023-02-18T08:27:15.697Z,79.35
2023-02-18T08:28:15.669Z,79.86
2023-02-18T08:29:15.664Z,79.96
2023-02-18T08:30:15.683Z,79.75
2023-02-18T08:31:15.962Z,79.75
2023-02-18T08:32:15.653Z,79.55
2023-02-18T08:33:15.625Z,79.96
2023-02-18T08:34:15.595Z,80.16
2023-02-18T08:35:15.583Z,80.57
2023-02-18T08:36:15.571Z,80.57
2023-02-18T08:37:15.550Z,80.68
2023-02-18T08:38:15.546Z,80.88
2023-02-18T08:39:15.533Z,81.29
2023-02-18T08:40:15.503Z,81.29
2023-02-18T08:41:15.490Z,81.39
2023-02-18T08:42:15.477Z,81.39
2023-02-18T08:43:15.479Z,81.09
2023-02-18T08:44:15.455Z,80.68
2023-02-18T08:45:15.435Z,80.88
2023-02-18T08:46:16.533Z,80.98
2023-02-18T08:48:13.656Z,80.98
2023-02-18T08:48:20.335Z,81.09
2023-02-18T08:49:15.410Z,81.04
2023-02-18T08:50:15.376Z,81.15
2023-02-18T08:51:15.357Z,80.84
2023-02-18T08:52:15.345Z,80.94
2023-02-18T08:53:15.355Z,80.94
2023-02-18T08:54:15.312Z,81.04
2023-02-18T08:55:15.307Z,80.74
2023-02-18T08:56:15.290Z,80.54
2023-02-18T08:57:15.278Z,80.64
2023-02-18T08:58:15.278Z,80.54
2023-02-18T08:59:15.250Z,80.33
2023-02-18T09:00:15.511Z,80.33
2023-02-18T09:01:15.352Z,80.84
2023-02-18T09:02:15.232Z,80.74
2023-02-18T09:03:15.211Z,80.33
2023-02-18T09:04:15.219Z,79.93
2023-02-18T09:05:15.195Z,80.33
2023-02-18T09:06:15.164Z,80.84
2023-02-18T09:07:15.142Z,80.74
2023-02-18T09:08:15.156Z,80.02
2023-02-18T09:09:15.112Z,80.74
2023-02-18T09:10:15.095Z,81.76
2023-02-18T09:11:15.088Z,79.82
2023-02-18T09:12:15.072Z,80.23
2023-02-18T09:13:15.074Z,79.55
2023-02-18T09:14:15.046Z,79.55
2023-02-18T09:15:15.027Z,79.86
2023-02-18T09:16:15.027Z,79.75
2023-02-18T09:17:15.005Z,79.14
2023-02-18T09:18:15.004Z,78.80
2023-02-18T09:19:14.978Z,79.00
2023-02-18T09:20:14.960Z,79.32
2023-02-18T09:21:14.979Z,78.94
2023-02-18T09:22:14.977Z,79.11
2023-02-18T09:23:14.934Z,79.14
2023-02-18T09:24:14.908Z,78.91
2023-02-18T09:25:14.891Z,79.11
2023-02-18T09:26:14.886Z,79.11
2023-02-18T09:27:14.868Z,78.30
2023-02-18T09:28:14.865Z,79.11
2023-02-18T09:29:14.837Z,77.68
2023-02-18T09:30:14.899Z,77.37
2023-02-18T09:31:15.108Z,77.98
2023-02-18T09:32:22.615Z,78.70
2023-02-18T09:33:14.804Z,78.60
2023-02-18T09:34:14.768Z,78.70
2023-02-18T09:35:14.773Z,78.30
2023-02-18T09:36:14.743Z,78.70
2023-02-18T09:37:14.747Z,78.91
2023-02-18T09:38:14.720Z,78.80
2023-02-18T09:39:14.721Z,78.70
2023-02-18T09:40:15.533Z,78.50
2023-02-18T09:41:14.670Z,78.50
2023-02-18T09:42:14.657Z,78.70
2023-02-18T09:43:14.641Z,78.70
2023-02-18T09:44:14.688Z,78.19
2023-02-18T09:45:14.619Z,78.30
2023-02-18T09:46:14.657Z,78.60
2023-02-18T09:47:14.587Z,78.70
2023-02-18T09:48:14.570Z,78.30
2023-02-18T09:49:14.583Z,77.68
2023-02-18T09:50:14.547Z,77.92
2023-02-18T09:51:14.550Z,77.41
2023-02-18T09:52:14.530Z,78.23
2023-02-18T09:53:14.533Z,78.70
2023-02-18T09:54:14.564Z,77.82
2023-02-18T09:55:14.481Z,78.09
2023-02-18T09:56:14.469Z,78.23
2023-02-18T09:57:14.456Z,77.82
2023-02-18T09:58:14.442Z,77.92
2023-02-18T09:59:14.440Z,77.51
2023-02-18T10:00:14.419Z,77.58
2023-02-18T10:01:14.415Z,77.21
2023-02-18T10:02:14.385Z,76.70
2023-02-18T10:03:14.371Z,76.56
2023-02-18T10:04:14.383Z,77.07
2023-02-18T10:05:14.343Z,77.41
2023-02-18T10:06:14.332Z,77.51
2023-02-18T10:07:14.320Z,78.12
2023-02-18T10:08:14.344Z,77.62
2023-02-18T10:09:14.333Z,77.31
2023-02-18T10:10:14.280Z,76.90
2023-02-18T10:11:14.266Z,77.41
2023-02-18T10:12:14.264Z,77.00
2023-02-18T10:13:14.252Z,77.00
2023-02-18T10:14:14.247Z,76.59
2023-02-18T10:15:14.224Z,76.50
2023-02-18T10:16:14.284Z,76.19
2023-02-18T10:17:14.188Z,75.88
2023-02-18T10:18:14.170Z,76.19
2023-02-18T10:19:14.171Z,76.59
2023-02-18T10:20:14.136Z,76.59
2023-02-18T10:21:14.127Z,76.59
2023-02-18T10:22:15.193Z,76.50
2023-02-18T10:23:14.101Z,75.68
2023-02-18T10:24:14.103Z,76.39
2023-02-18T10:25:14.095Z,75.68
2023-02-18T10:26:14.067Z,75.16
2023-02-18T10:27:14.055Z,75.37
2023-02-18T10:28:14.036Z,75.88
2023-02-18T10:29:14.055Z,75.68
2023-02-18T10:30:14.078Z,75.27
2023-02-18T10:31:14.113Z,75.37
2023-02-18T10:32:14.054Z,75.48
2023-02-18T10:33:13.967Z,75.37
2023-02-18T10:34:13.970Z,75.27
2023-02-18T10:35:13.946Z,75.16
2023-02-18T10:36:13.925Z,75.57
2023-02-18T10:37:13.916Z,75.57
2023-02-18T10:38:13.904Z,75.16
2023-02-18T10:39:13.897Z,75.16
2023-02-18T10:40:13.868Z,74.96
2023-02-18T10:41:13.882Z,74.86
2023-02-18T10:42:13.846Z,75.37
2023-02-18T10:43:13.832Z,75.48
2023-02-18T10:44:13.826Z,75.88
2023-02-18T10:45:13.817Z,75.37
2023-02-18T10:46:13.974Z,75.07
2023-02-18T10:47:13.776Z,74.86
2023-02-18T10:48:13.761Z,75.07
2023-02-18T10:49:13.761Z,75.48
2023-02-18T10:50:13.750Z,75.78
2023-02-18T10:51:13.728Z,75.78
2023-02-18T10:52:13.705Z,75.07
2023-02-18T10:53:13.705Z,75.27
2023-02-18T10:54:13.710Z,75.68
2023-02-18T10:55:13.677Z,75.48
2023-02-18T10:56:13.678Z,75.27
2023-02-18T10:57:13.661Z,75.27
2023-02-18T10:58:13.626Z,75.07
2023-02-18T10:59:13.618Z,75.16
2023-02-18T11:00:13.612Z,75.16
2023-02-18T11:01:13.589Z,75.27
2023-02-18T11:02:13.573Z,75.16
2023-02-18T11:03:13.558Z,75.16
2023-02-18T11:04:13.540Z,75.16
2023-02-18T11:05:13.541Z,75.48
2023-02-18T11:06:13.512Z,75.68
2023-02-18T11:07:13.500Z,76.09
2023-02-18T11:08:13.494Z,76.09
2023-02-18T11:09:13.479Z,76.59
2023-02-18T11:10:13.477Z,76.70
2023-02-18T11:11:13.452Z,76.19
2023-02-18T11:12:13.441Z,75.78
2023-02-18T11:13:13.447Z,75.98
2023-02-18T11:14:13.416Z,75.88
2023-02-18T11:15:13.409Z,75.98
2023-02-18T11:16:14.441Z,76.09
2023-02-18T11:17:13.380Z,76.19
2023-02-18T11:18:13.357Z,75.88
2023-02-18T11:19:13.343Z,75.98
2023-02-18T11:20:13.347Z,76.29
2023-02-18T11:21:13.312Z,76.09
2023-02-18T11:22:13.302Z,76.19
2023-02-18T11:23:13.287Z,76.19
2023-02-18T11:24:13.277Z,75.88
2023-02-18T11:25:13.275Z,76.09
2023-02-18T11:26:13.246Z,76.19
2023-02-18T11:27:14.636Z,76.29
2023-02-18T11:28:13.228Z,76.90
2023-02-18T11:29:13.228Z,77.11
2023-02-18T11:30:13.245Z,77.21
2023-02-18T11:31:13.375Z,77.21
2023-02-18T11:32:13.371Z,76.19
2023-02-18T11:33:14.355Z,75.88
2023-02-18T11:34:13.143Z,76.05
2023-02-18T11:35:13.189Z,76.05
2023-02-18T11:36:13.124Z,75.34
2023-02-18T11:37:13.104Z,75.23
2023-02-18T11:38:13.090Z,75.13
2023-02-18T11:39:13.079Z,75.27
2023-02-18T11:40:13.079Z,75.34
2023-02-18T11:41:13.052Z,75.85
2023-02-18T11:42:13.033Z,76.05
2023-02-18T11:43:13.020Z,75.54
2023-02-18T11:44:13.004Z,74.93
2023-02-18T11:45:13.027Z,75.16
2023-02-18T11:46:12.985Z,75.23
2023-02-18T11:47:12.986Z,75.07
2023-02-18T11:48:12.953Z,75.78
2023-02-18T11:49:12.956Z,75.85
2023-02-18T11:50:12.944Z,76.19
2023-02-18T11:51:12.914Z,75.57
2023-02-18T11:52:12.902Z,75.98
2023-02-18T11:53:12.887Z,75.68
2023-02-18T11:54:12.870Z,75.68
2023-02-18T11:55:12.871Z,75.44
2023-02-18T11:56:12.849Z,75.54
2023-02-18T11:57:12.842Z,75.68
2023-02-18T11:58:12.827Z,75.78
2023-02-18T11:59:12.854Z,75.98
2023-02-18T12:00:12.816Z,76.59
2023-02-18T12:01:12.806Z,76.29
2023-02-18T12:02:12.828Z,75.88
2023-02-18T12:03:12.761Z,76.09
2023-02-18T12:04:12.747Z,75.88
2023-02-18T12:05:12.758Z,75.98
2023-02-18T12:06:12.715Z,75.88
2023-02-18T12:07:12.704Z,75.88
2023-02-18T12:08:12.693Z,75.78
2023-02-18T12:09:12.677Z,75.88
2023-02-18T12:10:12.679Z,75.88
2023-02-18T12:11:12.657Z,76.09
2023-02-18T12:12:12.637Z,76.39
2023-02-18T12:13:12.625Z,76.09
2023-02-18T12:14:12.616Z,76.39
2023-02-18T12:15:12.636Z,76.59
2023-02-18T12:16:12.607Z,76.19
2023-02-18T12:17:12.596Z,76.29
2023-02-18T12:18:12.566Z,76.59
2023-02-18T12:19:12.542Z,76.59
2023-02-18T12:20:12.629Z,76.09
2023-02-18T12:21:12.541Z,76.19
2023-02-18T12:22:12.509Z,76.29
2023-02-18T12:23:12.491Z,75.88
2023-02-18T12:24:12.520Z,75.95
2023-02-18T12:25:12.475Z,76.66
2023-02-18T12:26:12.464Z,76.15
2023-02-18T12:27:12.454Z,75.95
2023-02-18T12:28:12.423Z,75.74
2023-02-18T12:29:12.415Z,75.64
2023-02-18T12:30:12.586Z,75.40
2023-02-18T12:31:12.616Z,74.99
2023-02-18T12:32:12.470Z,74.76
2023-02-18T12:33:12.398Z,74.55
2023-02-18T12:34:12.369Z,74.76
2023-02-18T12:35:12.326Z,74.82
2023-02-18T12:36:12.332Z,74.35
2023-02-18T12:37:12.301Z,74.62
2023-02-18T12:38:12.289Z,73.26
2023-02-18T12:39:12.297Z,72.69
2023-02-18T12:40:12.328Z,73.09
2023-02-18T12:41:12.265Z,72.31
2023-02-18T12:42:12.244Z,69.54
2023-02-18T12:43:12.222Z,70.04
2023-02-18T12:44:12.225Z,70.45
2023-02-18T12:45:12.195Z,70.45
2023-02-18T12:46:12.313Z,70.62
2023-02-18T12:47:12.166Z,71.77
2023-02-18T12:48:12.163Z,72.17
2023-02-18T12:49:12.166Z,72.48
2023-02-18T12:50:12.181Z,73.16
2023-02-18T12:51:12.130Z,74.32
2023-02-18T12:52:12.102Z,74.72